sensor_id;sensor_type;location;lat;lon;timestamp;pressure;altitude;pressure_sealevel;temperature;humidity
35716;BME280;21840;44.920;8.616;2022-12-18T00:03:43;101580.56;;;8.78;54.25
35716;BME280;21840;44.920;8.616;2022-12-18T00:06:09;101573.25;;;9.26;53.06
35716;BME280;21840;44.920;8.616;2022-12-18T00:08:34;101569.75;;;8.99;53.73
35716;BME280;21840;44.920;8.616;2022-12-18T00:11:07;101572.16;;;9.02;53.08
35716;BME280;21840;44.920;8.616;2022-12-18T00:13:34;101579.38;;;8.70;53.71
35716;BME280;21840;44.920;8.616;2022-12-18T00:16:09;101570.94;;;8.93;53.01
35716;BME280;21840;44.920;8.616;2022-12-18T00:18:34;101576.97;;;8.36;53.73
35716;BME280;21840;44.920;8.616;2022-12-18T00:21:01;101578.69;;;8.66;53.64
35716;BME280;21840;44.920;8.616;2022-12-18T00:23:28;101581.34;;;9.09;52.91
35716;BME280;21840;44.920;8.616;2022-12-18T00:25:54;101585.06;;;9.05;52.52
35716;BME280;21840;44.920;8.616;2022-12-18T00:28:20;101590.03;;;8.81;53.36
35716;BME280;21840;44.920;8.616;2022-12-18T00:30:45;101591.34;;;9.02;53.03
35716;BME280;21840;44.920;8.616;2022-12-18T00:33:11;101596.56;;;9.17;52.72
35716;BME280;21840;44.920;8.616;2022-12-18T00:35:36;101597.59;;;9.14;52.20
35716;BME280;21840;44.920;8.616;2022-12-18T00:38:02;101605.81;;;8.65;53.67
35716;BME280;21840;44.920;8.616;2022-12-18T00:40:27;101609.78;;;8.87;53.19
35716;BME280;21840;44.920;8.616;2022-12-18T00:42:53;101616.25;;;8.51;54.13
35716;BME280;21840;44.920;8.616;2022-12-18T00:45:29;101622.69;;;8.90;53.46
35716;BME280;21840;44.920;8.616;2022-12-18T00:47:56;101617.94;;;8.96;53.70
35716;BME280;21840;44.920;8.616;2022-12-18T00:50:23;101623.81;;;8.41;53.82
35716;BME280;21840;44.920;8.616;2022-12-18T00:52:49;101644.75;;;8.41;53.93
35716;BME280;21840;44.920;8.616;2022-12-18T00:55:14;101637.06;;;8.54;54.42
35716;BME280;21840;44.920;8.616;2022-12-18T00:57:40;101639.78;;;8.67;53.70
35716;BME280;21840;44.920;8.616;2022-12-18T01:00:08;101649.69;;;8.61;53.62
35716;BME280;21840;44.920;8.616;2022-12-18T01:02:34;101654.28;;;8.72;53.54
35716;BME280;21840;44.920;8.616;2022-12-18T01:05:01;101653.44;;;8.72;53.86
35716;BME280;21840;44.920;8.616;2022-12-18T01:07:26;101656.91;;;8.72;53.53
35716;BME280;21840;44.920;8.616;2022-12-18T01:09:52;101659.66;;;8.99;53.40
35716;BME280;21840;44.920;8.616;2022-12-18T01:12:17;101660.09;;;9.06;52.89
35716;BME280;21840;44.920;8.616;2022-12-18T01:14:42;101660.63;;;8.68;53.17
35716;BME280;21840;44.920;8.616;2022-12-18T01:17:08;101665.28;;;8.49;54.21
35716;BME280;21840;44.920;8.616;2022-12-18T01:19:33;101670.16;;;8.09;55.15
35716;BME280;21840;44.920;8.616;2022-12-18T01:21:59;101676.72;;;8.00;55.11
35716;BME280;21840;44.920;8.616;2022-12-18T01:24:25;101672.59;;;7.96;55.79
35716;BME280;21840;44.920;8.616;2022-12-18T01:26:50;101672.53;;;7.82;55.93
35716;BME280;21840;44.920;8.616;2022-12-18T01:29:16;101675.28;;;7.47;56.46
35716;BME280;21840;44.920;8.616;2022-12-18T01:31:41;101680.78;;;7.74;56.26
35716;BME280;21840;44.920;8.616;2022-12-18T01:34:08;101694.69;;;8.06;55.21
35716;BME280;21840;44.920;8.616;2022-12-18T01:36:37;101682.19;;;8.27;55.30
35716;BME280;21840;44.920;8.616;2022-12-18T01:39:05;101686.41;;;7.98;55.45
35716;BME280;21840;44.920;8.616;2022-12-18T01:41:32;101689.16;;;7.96;54.95
35716;BME280;21840;44.920;8.616;2022-12-18T01:50:14;101702.09;;;8.46;54.18
35716;BME280;21840;44.920;8.616;2022-12-18T01:52:47;101700.47;;;8.59;53.66
35716;BME280;21840;44.920;8.616;2022-12-18T01:55:14;101706.56;;;8.43;53.74
35716;BME280;21840;44.920;8.616;2022-12-18T01:57:41;101706.47;;;8.45;54.01
35716;BME280;21840;44.920;8.616;2022-12-18T02:00:11;101716.31;;;8.72;53.58
35716;BME280;21840;44.920;8.616;2022-12-18T02:02:44;101715.53;;;8.39;54.51
35716;BME280;21840;44.920;8.616;2022-12-18T02:05:37;101725.91;;;8.25;54.52
35716;BME280;21840;44.920;8.616;2022-12-18T02:08:11;101718.63;;;8.30;54.81
35716;BME280;21840;44.920;8.616;2022-12-18T02:13:20;101713.88;;;8.53;54.10
35716;BME280;21840;44.920;8.616;2022-12-18T02:18:58;101712.75;;;7.79;55.29
35716;BME280;21840;44.920;8.616;2022-12-18T02:21:45;101720.09;;;8.20;55.09
35716;BME280;21840;44.920;8.616;2022-12-18T02:24:43;101713.06;;;8.36;54.19
35716;BME280;21840;44.920;8.616;2022-12-18T02:27:11;101713.13;;;8.81;53.42
35716;BME280;21840;44.920;8.616;2022-12-18T02:29:50;101723.53;;;8.36;53.73
35716;BME280;21840;44.920;8.616;2022-12-18T02:32:27;101721.63;;;8.70;53.59
35716;BME280;21840;44.920;8.616;2022-12-18T02:34:56;101723.53;;;8.82;52.99
35716;BME280;21840;44.920;8.616;2022-12-18T02:37:27;101724.19;;;8.56;53.48
35716;BME280;21840;44.920;8.616;2022-12-18T02:39:56;101722.88;;;8.93;52.94
35716;BME280;21840;44.920;8.616;2022-12-18T02:42:23;101726.59;;;8.75;52.88
35716;BME280;21840;44.920;8.616;2022-12-18T02:44:51;101720.38;;;8.92;52.67
35716;BME280;21840;44.920;8.616;2022-12-18T02:47:24;101730.59;;;8.96;52.63
35716;BME280;21840;44.920;8.616;2022-12-18T02:50:07;101741.72;;;9.00;52.42
35716;BME280;21840;44.920;8.616;2022-12-18T02:52:50;101744.47;;;8.82;52.78
35716;BME280;21840;44.920;8.616;2022-12-18T02:58:19;101748.63;;;8.87;52.75
35716;BME280;21840;44.920;8.616;2022-12-18T03:01:03;101751.31;;;8.85;52.83
35716;BME280;21840;44.920;8.616;2022-12-18T03:03:39;101749.72;;;8.82;52.90
35716;BME280;21840;44.920;8.616;2022-12-18T03:06:13;101746.38;;;8.95;52.80
35716;BME280;21840;44.920;8.616;2022-12-18T03:08:48;101756.25;;;8.75;53.17
35716;BME280;21840;44.920;8.616;2022-12-18T03:11:16;101758.78;;;8.77;52.99
35716;BME280;21840;44.920;8.616;2022-12-18T03:14:03;101761.59;;;8.74;53.13
35716;BME280;21840;44.920;8.616;2022-12-18T03:16:31;101750.88;;;8.62;53.39
35716;BME280;21840;44.920;8.616;2022-12-18T03:19:03;101760.44;;;8.48;53.70
35716;BME280;21840;44.920;8.616;2022-12-18T03:21:43;101758.47;;;8.67;53.28
35716;BME280;21840;44.920;8.616;2022-12-18T03:24:14;101762.47;;;8.89;52.92
35716;BME280;21840;44.920;8.616;2022-12-18T03:26:44;101753.44;;;8.78;53.04
35716;BME280;21840;44.920;8.616;2022-12-18T03:29:18;101767.22;;;8.66;53.27
35716;BME280;21840;44.920;8.616;2022-12-18T03:31:54;101763.22;;;8.45;53.97
35716;BME280;21840;44.920;8.616;2022-12-18T03:34:28;101765.75;;;8.46;53.72
35716;BME280;21840;44.920;8.616;2022-12-18T03:36:55;101766.94;;;8.56;53.64
35716;BME280;21840;44.920;8.616;2022-12-18T03:39:22;101769.88;;;8.50;54.05
35716;BME280;21840;44.920;8.616;2022-12-18T03:50:16;101774.41;;;7.83;55.07
35716;BME280;21840;44.920;8.616;2022-12-18T03:52:57;101770.41;;;7.27;57.01
35716;BME280;21840;44.920;8.616;2022-12-18T03:55:25;101770.81;;;8.17;54.99
35716;BME280;21840;44.920;8.616;2022-12-18T03:57:59;101767.59;;;8.28;54.64
35716;BME280;21840;44.920;8.616;2022-12-18T04:00:34;101775.97;;;8.51;54.38
35716;BME280;21840;44.920;8.616;2022-12-18T04:03:07;101783.31;;;7.96;55.09
35716;BME280;21840;44.920;8.616;2022-12-18T04:05:41;101788.53;;;8.60;53.96
35716;BME280;21840;44.920;8.616;2022-12-18T04:08:08;101795.31;;;8.16;54.77
35716;BME280;21840;44.920;8.616;2022-12-18T04:10:37;101800.75;;;8.75;54.07
35716;BME280;21840;44.920;8.616;2022-12-18T04:13:03;101788.81;;;8.55;53.90
35716;BME280;21840;44.920;8.616;2022-12-18T04:15:29;101784.47;;;8.38;54.02
35716;BME280;21840;44.920;8.616;2022-12-18T04:17:57;101795.31;;;8.64;54.06
35716;BME280;21840;44.920;8.616;2022-12-18T04:20:27;101795.41;;;8.47;54.26
35716;BME280;21840;44.920;8.616;2022-12-18T04:22:52;101803.41;;;8.43;54.44
35716;BME280;21840;44.920;8.616;2022-12-18T04:25:19;101811.81;;;8.80;53.49
35716;BME280;21840;44.920;8.616;2022-12-18T04:28:04;101806.84;;;8.76;53.35
35716;BME280;21840;44.920;8.616;2022-12-18T04:30:30;101805.44;;;8.54;53.96
35716;BME280;21840;44.920;8.616;2022-12-18T04:32:56;101813.84;;;8.75;53.47
35716;BME280;21840;44.920;8.616;2022-12-18T04:35:21;101808.19;;;8.35;54.29
35716;BME280;21840;44.920;8.616;2022-12-18T04:37:47;101814.06;;;8.40;54.33
35716;BME280;21840;44.920;8.616;2022-12-18T04:40:14;101805.41;;;8.38;54.41
35716;BME280;21840;44.920;8.616;2022-12-18T04:42:42;101805.94;;;8.29;54.89
35716;BME280;21840;44.920;8.616;2022-12-18T04:45:08;101811.16;;;8.13;54.91
35716;BME280;21840;44.920;8.616;2022-12-18T04:47:34;101805.97;;;8.45;54.27
35716;BME280;21840;44.920;8.616;2022-12-18T04:50:01;101813.63;;;8.32;54.61
35716;BME280;21840;44.920;8.616;2022-12-18T04:52:27;101823.44;;;7.95;55.68
35716;BME280;21840;44.920;8.616;2022-12-18T04:54:52;101831.53;;;8.24;55.15
35716;BME280;21840;44.920;8.616;2022-12-18T04:57:18;101828.22;;;8.20;54.91
35716;BME280;21840;44.920;8.616;2022-12-18T04:59:44;101827.66;;;8.47;54.55
35716;BME280;21840;44.920;8.616;2022-12-18T05:02:12;101827.63;;;8.31;54.69
35716;BME280;21840;44.920;8.616;2022-12-18T05:04:38;101823.19;;;8.49;54.17
35716;BME280;21840;44.920;8.616;2022-12-18T05:07:04;101831.63;;;8.54;54.49
35716;BME280;21840;44.920;8.616;2022-12-18T05:09:29;101833.81;;;8.62;54.16
35716;BME280;21840;44.920;8.616;2022-12-18T05:11:54;101845.47;;;8.40;54.35
35716;BME280;21840;44.920;8.616;2022-12-18T05:14:20;101847.53;;;8.02;54.63
35716;BME280;21840;44.920;8.616;2022-12-18T05:16:45;101852.22;;;7.95;55.44
35716;BME280;21840;44.920;8.616;2022-12-18T05:19:11;101857.91;;;7.70;55.72
35716;BME280;21840;44.920;8.616;2022-12-18T05:21:36;101868.63;;;8.15;55.53
35716;BME280;21840;44.920;8.616;2022-12-18T05:24:02;101870.38;;;8.48;54.56
35716;BME280;21840;44.920;8.616;2022-12-18T05:26:28;101875.75;;;8.29;54.59
35716;BME280;21840;44.920;8.616;2022-12-18T05:28:53;101876.72;;;8.10;54.89
35716;BME280;21840;44.920;8.616;2022-12-18T05:31:24;101879.13;;;7.82;55.31
35716;BME280;21840;44.920;8.616;2022-12-18T05:33:50;101878.69;;;8.38;54.16
35716;BME280;21840;44.920;8.616;2022-12-18T05:36:15;101884.50;;;8.12;54.85
35716;BME280;21840;44.920;8.616;2022-12-18T05:38:41;101896.50;;;7.48;55.90
35716;BME280;21840;44.920;8.616;2022-12-18T05:41:07;101890.41;;;7.82;55.57
35716;BME280;21840;44.920;8.616;2022-12-18T05:43:35;101885.59;;;7.57;56.15
35716;BME280;21840;44.920;8.616;2022-12-18T05:46:10;101900.97;;;7.63;55.33
35716;BME280;21840;44.920;8.616;2022-12-18T05:48:36;101904.28;;;7.49;56.13
35716;BME280;21840;44.920;8.616;2022-12-18T05:51:12;101900.28;;;7.42;56.49
35716;BME280;21840;44.920;8.616;2022-12-18T05:53:39;101906.13;;;7.82;55.86
35716;BME280;21840;44.920;8.616;2022-12-18T05:56:08;101912.81;;;7.35;56.76
35716;BME280;21840;44.920;8.616;2022-12-18T05:58:34;101917.88;;;6.85;58.03
35716;BME280;21840;44.920;8.616;2022-12-18T06:01:11;101911.81;;;7.38;57.14
35716;BME280;21840;44.920;8.616;2022-12-18T06:03:37;101917.13;;;7.54;56.20
35716;BME280;21840;44.920;8.616;2022-12-18T06:06:03;101918.88;;;7.53;56.50
35716;BME280;21840;44.920;8.616;2022-12-18T06:08:29;101923.56;;;6.93;58.07
35716;BME280;21840;44.920;8.616;2022-12-18T06:10:54;101922.25;;;7.38;57.54
35716;BME280;21840;44.920;8.616;2022-12-18T06:13:20;101925.88;;;7.88;56.04
35716;BME280;21840;44.920;8.616;2022-12-18T06:15:49;101917.19;;;8.20;55.25
35716;BME280;21840;44.920;8.616;2022-12-18T06:18:14;101925.13;;;8.19;55.21
35716;BME280;21840;44.920;8.616;2022-12-18T06:20:39;101923.97;;;7.56;56.43
35716;BME280;21840;44.920;8.616;2022-12-18T06:23:06;101931.31;;;7.83;56.18
35716;BME280;21840;44.920;8.616;2022-12-18T06:25:32;101935.44;;;8.22;54.99
35716;BME280;21840;44.920;8.616;2022-12-18T06:27:58;101938.91;;;8.05;55.33
35716;BME280;21840;44.920;8.616;2022-12-18T06:30:24;101932.84;;;8.05;54.92
35716;BME280;21840;44.920;8.616;2022-12-18T06:32:50;101932.53;;;7.93;55.43
35716;BME280;21840;44.920;8.616;2022-12-18T06:35:15;101953.44;;;8.11;55.38
35716;BME280;21840;44.920;8.616;2022-12-18T06:37:41;101956.69;;;7.64;56.74
35716;BME280;21840;44.920;8.616;2022-12-18T06:40:07;101950.78;;;7.77;56.40
35716;BME280;21840;44.920;8.616;2022-12-18T06:42:32;101955.06;;;7.96;55.72
35716;BME280;21840;44.920;8.616;2022-12-18T06:44:58;101955.34;;;7.74;56.54
35716;BME280;21840;44.920;8.616;2022-12-18T06:47:24;101953.19;;;7.82;55.96
35716;BME280;21840;44.920;8.616;2022-12-18T06:49:49;101956.41;;;7.87;55.94
35716;BME280;21840;44.920;8.616;2022-12-18T06:52:18;101965.19;;;7.86;56.08
35716;BME280;21840;44.920;8.616;2022-12-18T06:54:43;101974.28;;;7.79;56.22
35716;BME280;21840;44.920;8.616;2022-12-18T06:57:09;101982.22;;;7.59;56.77
35716;BME280;21840;44.920;8.616;2022-12-18T06:59:34;101981.94;;;8.17;55.39
35716;BME280;21840;44.920;8.616;2022-12-18T07:02:00;101983.66;;;8.34;55.03
35716;BME280;21840;44.920;8.616;2022-12-18T07:04:29;101982.34;;;8.42;54.49
35716;BME280;21840;44.920;8.616;2022-12-18T07:06:54;101992.81;;;8.42;54.60
35716;BME280;21840;44.920;8.616;2022-12-18T07:09:20;101998.59;;;8.32;54.78
35716;BME280;21840;44.920;8.616;2022-12-18T07:11:46;101996.34;;;8.59;54.17
35716;BME280;21840;44.920;8.616;2022-12-18T07:14:11;101995.50;;;8.74;53.73
35716;BME280;21840;44.920;8.616;2022-12-18T07:16:37;101991.47;;;8.69;53.56
35716;BME280;21840;44.920;8.616;2022-12-18T07:19:02;101990.09;;;8.77;53.64
35716;BME280;21840;44.920;8.616;2022-12-18T07:21:27;102001.72;;;8.56;53.86
35716;BME280;21840;44.920;8.616;2022-12-18T07:23:53;102009.44;;;8.59;54.14
35716;BME280;21840;44.920;8.616;2022-12-18T07:26:20;102017.31;;;8.24;54.69
35716;BME280;21840;44.920;8.616;2022-12-18T07:28:46;102013.94;;;8.39;54.51
35716;BME280;21840;44.920;8.616;2022-12-18T07:31:15;102021.63;;;8.42;54.71
35716;BME280;21840;44.920;8.616;2022-12-18T07:33:42;102021.69;;;8.41;54.41
35716;BME280;21840;44.920;8.616;2022-12-18T07:36:08;102025.31;;;8.04;55.39
35716;BME280;21840;44.920;8.616;2022-12-18T07:38:35;102042.00;;;8.01;56.02
35716;BME280;21840;44.920;8.616;2022-12-18T07:41:08;102043.78;;;7.83;56.01
35716;BME280;21840;44.920;8.616;2022-12-18T07:43:35;102042.88;;;8.36;55.17
35716;BME280;21840;44.920;8.616;2022-12-18T07:46:01;102053.03;;;8.42;54.59
35716;BME280;21840;44.920;8.616;2022-12-18T07:48:29;102060.75;;;8.79;54.09
35716;BME280;21840;44.920;8.616;2022-12-18T07:51:00;102069.03;;;8.71;54.47
35716;BME280;21840;44.920;8.616;2022-12-18T07:53:26;102067.50;;;8.50;54.47
35716;BME280;21840;44.920;8.616;2022-12-18T07:55:58;102078.97;;;8.64;54.01
35716;BME280;21840;44.920;8.616;2022-12-18T07:58:24;102080.16;;;8.75;53.54
35716;BME280;21840;44.920;8.616;2022-12-18T08:00:50;102078.41;;;8.23;54.89
35716;BME280;21840;44.920;8.616;2022-12-18T08:03:18;102068.78;;;8.24;54.89
35716;BME280;21840;44.920;8.616;2022-12-18T08:05:44;102082.59;;;8.62;54.37
35716;BME280;21840;44.920;8.616;2022-12-18T08:08:09;102086.03;;;8.28;54.99
35716;BME280;21840;44.920;8.616;2022-12-18T08:10:35;102085.81;;;8.67;54.48
35716;BME280;21840;44.920;8.616;2022-12-18T08:13:00;102092.25;;;8.77;54.08
35716;BME280;21840;44.920;8.616;2022-12-18T08:15:26;102090.84;;;8.88;53.65
35716;BME280;21840;44.920;8.616;2022-12-18T08:17:51;102082.34;;;8.67;54.09
35716;BME280;21840;44.920;8.616;2022-12-18T08:20:17;102084.34;;;8.95;53.76
35716;BME280;21840;44.920;8.616;2022-12-18T08:22:44;102090.13;;;9.33;52.97
35716;BME280;21840;44.920;8.616;2022-12-18T08:25:10;102092.00;;;9.47;52.58
35716;BME280;21840;44.920;8.616;2022-12-18T08:27:36;102097.47;;;9.11;52.97
35716;BME280;21840;44.920;8.616;2022-12-18T08:30:03;102096.38;;;9.31;52.73
35716;BME280;21840;44.920;8.616;2022-12-18T08:32:31;102100.03;;;9.60;52.32
35716;BME280;21840;44.920;8.616;2022-12-18T08:34:58;102108.81;;;9.11;53.40
35716;BME280;21840;44.920;8.616;2022-12-18T08:37:23;102109.00;;;9.40;52.92
35716;BME280;21840;44.920;8.616;2022-12-18T08:39:49;102116.09;;;9.38;52.75
35716;BME280;21840;44.920;8.616;2022-12-18T08:42:14;102113.72;;;9.65;52.16
35716;BME280;21840;44.920;8.616;2022-12-18T08:44:58;102115.84;;;9.74;51.78
35716;BME280;21840;44.920;8.616;2022-12-18T08:47:24;102119.28;;;10.06;51.17
35716;BME280;21840;44.920;8.616;2022-12-18T08:49:51;102125.81;;;9.99;51.27
35716;BME280;21840;44.920;8.616;2022-12-18T08:52:16;102124.06;;;10.14;50.90
35716;BME280;21840;44.920;8.616;2022-12-18T08:54:42;102128.13;;;10.20;50.54
35716;BME280;21840;44.920;8.616;2022-12-18T08:57:08;102119.47;;;10.33;49.92
35716;BME280;21840;44.920;8.616;2022-12-18T08:59:33;102123.63;;;9.60;51.53
35716;BME280;21840;44.920;8.616;2022-12-18T09:01:59;102131.94;;;9.52;51.97
35716;BME280;21840;44.920;8.616;2022-12-18T09:04:24;102122.69;;;9.77;51.82
35716;BME280;21840;44.920;8.616;2022-12-18T09:06:49;102125.34;;;10.07;50.87
35716;BME280;21840;44.920;8.616;2022-12-18T09:09:18;102124.91;;;9.68;51.81
35716;BME280;21840;44.920;8.616;2022-12-18T09:11:43;102130.47;;;9.94;51.67
35716;BME280;21840;44.920;8.616;2022-12-18T09:14:09;102134.66;;;10.28;51.03
35716;BME280;21840;44.920;8.616;2022-12-18T09:16:35;102138.22;;;10.11;51.23
35716;BME280;21840;44.920;8.616;2022-12-18T09:19:02;102152.78;;;10.17;51.01
35716;BME280;21840;44.920;8.616;2022-12-18T09:21:32;102141.72;;;10.42;50.84
35716;BME280;21840;44.920;8.616;2022-12-18T09:23:57;102145.34;;;10.09;51.34
35716;BME280;21840;44.920;8.616;2022-12-18T09:26:24;102149.97;;;10.50;50.54
35716;BME280;21840;44.920;8.616;2022-12-18T09:28:50;102157.44;;;10.12;51.51
35716;BME280;21840;44.920;8.616;2022-12-18T09:31:18;102161.09;;;10.09;51.46
35716;BME280;21840;44.920;8.616;2022-12-18T09:33:44;102156.78;;;10.08;51.22
35716;BME280;21840;44.920;8.616;2022-12-18T09:36:14;102155.06;;;10.07;51.37
35716;BME280;21840;44.920;8.616;2022-12-18T09:38:40;102158.44;;;10.41;50.59
35716;BME280;21840;44.920;8.616;2022-12-18T09:43:53;102161.78;;;11.02;49.13
35716;BME280;21840;44.920;8.616;2022-12-18T09:46:31;102167.25;;;10.54;49.75
35716;BME280;21840;44.920;8.616;2022-12-18T09:49:11;102161.41;;;10.19;51.09
35716;BME280;21840;44.920;8.616;2022-12-18T09:52:04;102157.34;;;10.29;50.44
35716;BME280;21840;44.920;8.616;2022-12-18T09:54:59;102153.25;;;10.40;50.53
35716;BME280;21840;44.920;8.616;2022-12-18T09:57:28;102157.91;;;10.65;50.34
35716;BME280;21840;44.920;8.616;2022-12-18T10:00:03;102155.50;;;10.46;50.72
35716;BME280;21840;44.920;8.616;2022-12-18T10:02:36;102155.78;;;10.25;51.03
35716;BME280;21840;44.920;8.616;2022-12-18T10:05:18;102165.81;;;10.79;49.66
35716;BME280;21840;44.920;8.616;2022-12-18T10:08:16;102158.44;;;10.55;50.02
35716;BME280;21840;44.920;8.616;2022-12-18T10:10:57;102148.16;;;10.95;49.21
35716;BME280;21840;44.920;8.616;2022-12-18T10:13:27;102155.50;;;10.76;49.67
35716;BME280;21840;44.920;8.616;2022-12-18T10:16:13;102155.78;;;10.41;50.73
35716;BME280;21840;44.920;8.616;2022-12-18T10:21:41;102149.88;;;10.96;49.60
35716;BME280;21840;44.920;8.616;2022-12-18T10:24:24;102146.84;;;10.88;49.88
35716;BME280;21840;44.920;8.616;2022-12-18T10:27:04;102145.94;;;10.45;50.48
35716;BME280;21840;44.920;8.616;2022-12-18T10:29:34;102147.59;;;10.90;49.66
35716;BME280;21840;44.920;8.616;2022-12-18T10:32:00;102143.03;;;10.94;49.81
35716;BME280;21840;44.920;8.616;2022-12-18T10:34:25;102145.16;;;11.30;49.01
35716;BME280;21840;44.920;8.616;2022-12-18T10:36:51;102143.00;;;11.22;49.00
35716;BME280;21840;44.920;8.616;2022-12-18T10:39:21;102146.09;;;11.15;49.06
35716;BME280;21840;44.920;8.616;2022-12-18T10:41:50;102142.25;;;10.92;49.40
35716;BME280;21840;44.920;8.616;2022-12-18T10:44:22;102140.19;;;11.26;49.05
35716;BME280;21840;44.920;8.616;2022-12-18T10:46:49;102135.78;;;11.68;48.27
35716;BME280;21840;44.920;8.616;2022-12-18T10:49:46;102142.03;;;11.94;47.59
35716;BME280;21840;44.920;8.616;2022-12-18T10:52:25;102139.72;;;10.76;49.56
35716;BME280;21840;44.920;8.616;2022-12-18T10:55:03;102135.34;;;11.61;48.43
35716;BME280;21840;44.920;8.616;2022-12-18T10:57:37;102136.63;;;10.98;49.34
35716;BME280;21840;44.920;8.616;2022-12-18T11:02:49;102146.78;;;11.18;49.05
35716;BME280;21840;44.920;8.616;2022-12-18T11:07:53;102142.72;;;11.41;48.96
35716;BME280;21840;44.920;8.616;2022-12-18T11:10:32;102143.34;;;11.45;48.69
35716;BME280;21840;44.920;8.616;2022-12-18T11:13:16;102142.44;;;11.32;49.19
35716;BME280;21840;44.920;8.616;2022-12-18T11:15:42;102149.59;;;11.71;48.65
35716;BME280;21840;44.920;8.616;2022-12-18T11:18:17;102143.50;;;11.71;48.50
35716;BME280;21840;44.920;8.616;2022-12-18T11:20:50;102142.91;;;11.65;48.94
35716;BME280;21840;44.920;8.616;2022-12-18T11:23:18;102150.91;;;11.78;48.51
35716;BME280;21840;44.920;8.616;2022-12-18T11:25:59;102145.31;;;11.56;48.43
35716;BME280;21840;44.920;8.616;2022-12-18T11:28:39;102147.72;;;11.73;48.54
35716;BME280;21840;44.920;8.616;2022-12-18T11:31:22;102146.06;;;12.39;47.32
35716;BME280;21840;44.920;8.616;2022-12-18T11:36:43;102148.63;;;12.14;47.40
35716;BME280;21840;44.920;8.616;2022-12-18T11:41:52;102146.06;;;12.52;47.19
35716;BME280;21840;44.920;8.616;2022-12-18T11:44:46;102143.63;;;12.36;47.01
35716;BME280;21840;44.920;8.616;2022-12-18T11:49:47;102137.13;;;12.55;46.56
35716;BME280;21840;44.920;8.616;2022-12-18T11:52:31;102138.28;;;12.89;46.10
35716;BME280;21840;44.920;8.616;2022-12-18T11:55:01;102135.72;;;12.36;46.96
35716;BME280;21840;44.920;8.616;2022-12-18T12:00:18;102127.44;;;12.15;47.89
35716;BME280;21840;44.920;8.616;2022-12-18T12:03:16;102127.75;;;12.76;46.56
35716;BME280;21840;44.920;8.616;2022-12-18T12:05:55;102121.50;;;13.03;45.82
35716;BME280;21840;44.920;8.616;2022-12-18T12:11:35;102127.28;;;12.31;47.44
35716;BME280;21840;44.920;8.616;2022-12-18T12:19:15;102129.72;;;12.72;46.85
35716;BME280;21840;44.920;8.616;2022-12-18T12:21:55;102135.75;;;12.09;47.32
35716;BME280;21840;44.920;8.616;2022-12-18T12:27:38;102130.25;;;12.78;46.95
35716;BME280;21840;44.920;8.616;2022-12-18T12:30:21;102126.03;;;12.62;46.73
35716;BME280;21840;44.920;8.616;2022-12-18T12:38:19;102113.41;;;12.67;46.94
35716;BME280;21840;44.920;8.616;2022-12-18T12:40:51;102104.22;;;12.86;46.48
35716;BME280;21840;44.920;8.616;2022-12-18T12:46:21;102108.44;;;11.97;48.32
35716;BME280;21840;44.920;8.616;2022-12-18T12:48:54;102101.59;;;11.95;48.65
35716;BME280;21840;44.920;8.616;2022-12-18T12:51:23;102095.56;;;11.93;48.57
35716;BME280;21840;44.920;8.616;2022-12-18T12:53:51;102096.28;;;12.09;48.79
35716;BME280;21840;44.920;8.616;2022-12-18T12:56:19;102091.34;;;12.30;48.28
35716;BME280;21840;44.920;8.616;2022-12-18T13:01:54;102095.59;;;12.58;47.63
35716;BME280;21840;44.920;8.616;2022-12-18T13:04:49;102090.19;;;12.60;47.93
35716;BME280;21840;44.920;8.616;2022-12-18T13:07:26;102083.22;;;12.97;47.19
35716;BME280;21840;44.920;8.616;2022-12-18T13:12:54;102086.38;;;13.02;47.17
35716;BME280;21840;44.920;8.616;2022-12-18T13:17:48;102080.16;;;12.78;47.40
35716;BME280;21840;44.920;8.616;2022-12-18T13:20:15;102087.03;;;12.67;47.65
35716;BME280;21840;44.920;8.616;2022-12-18T13:22:46;102079.56;;;12.61;47.64
35716;BME280;21840;44.920;8.616;2022-12-18T13:31:00;102070.38;;;12.80;46.94
35716;BME280;21840;44.920;8.616;2022-12-18T13:38:35;102074.38;;;12.98;46.80
35716;BME280;21840;44.920;8.616;2022-12-18T13:41:22;102070.31;;;12.56;48.07
35716;BME280;21840;44.920;8.616;2022-12-18T13:44:11;102065.53;;;12.35;48.29
35716;BME280;21840;44.920;8.616;2022-12-18T13:46:45;102066.91;;;12.41;48.02
35716;BME280;21840;44.920;8.616;2022-12-18T13:51:48;102067.59;;;12.04;49.41
35716;BME280;21840;44.920;8.616;2022-12-18T13:54:33;102058.34;;;11.99;49.45
35716;BME280;21840;44.920;8.616;2022-12-18T13:57:00;102063.00;;;12.21;49.74
35716;BME280;21840;44.920;8.616;2022-12-18T13:59:39;102068.97;;;12.10;49.36
35716;BME280;21840;44.920;8.616;2022-12-18T14:02:16;102061.13;;;12.61;48.46
35716;BME280;21840;44.920;8.616;2022-12-18T14:04:46;102065.34;;;12.51;48.96
35716;BME280;21840;44.920;8.616;2022-12-18T14:07:14;102080.28;;;12.25;49.23
35716;BME280;21840;44.920;8.616;2022-12-18T14:09:47;102071.72;;;12.85;48.10
35716;BME280;21840;44.920;8.616;2022-12-18T14:12:34;102079.13;;;12.67;48.18
35716;BME280;21840;44.920;8.616;2022-12-18T14:17:49;102079.66;;;12.60;49.00
35716;BME280;21840;44.920;8.616;2022-12-18T14:20:17;102074.69;;;12.55;48.84
35716;BME280;21840;44.920;8.616;2022-12-18T14:22:45;102070.59;;;12.64;48.37
35716;BME280;21840;44.920;8.616;2022-12-18T14:27:53;102072.59;;;12.60;48.22
35716;BME280;21840;44.920;8.616;2022-12-18T14:30:31;102081.75;;;12.67;48.19
35716;BME280;21840;44.920;8.616;2022-12-18T14:35:37;102077.56;;;12.39;48.70
35716;BME280;21840;44.920;8.616;2022-12-18T14:38:32;102081.38;;;11.95;49.86
35716;BME280;21840;44.920;8.616;2022-12-18T14:43:26;102084.34;;;11.91;50.30
35716;BME280;21840;44.920;8.616;2022-12-18T14:45:52;102090.56;;;12.02;50.22
35716;BME280;21840;44.920;8.616;2022-12-18T14:48:40;102083.97;;;12.35;49.16
35716;BME280;21840;44.920;8.616;2022-12-18T14:53:44;102095.25;;;12.50;48.79
35716;BME280;21840;44.920;8.616;2022-12-18T14:56:22;102084.91;;;12.21;49.31